Hauptseite
METAR-TAF:

METAR-TAF

Flughäfen :

Monte Cimone, Italien

Breite: 44-12N, Länge: 010-42E, Höhe: 2165 m

Beobachtung

Neuester Wetterbericht von vor 1 Stunde und 16 Minuten, um 01:55 UTC
Wind 8 kt aus Süd/Südost
Temperatur 5°C
Luftfeuchtigkeit 93%
Luftdruck 1023 hPa
Sichtweite: 1200 m
Durchbrochene Bewölkung in der Höhe weniger als 100 ft
feuchter Dunst

METAR: LIVC 160155Z 15008KT 1200 BR BKN000 05/04 Q1023 RMK BKN MON INVIS VAL INVIS VIS MIN 1200

Zeit: 05:11 (03:11 UTC)


TAF: fehlend

Wetterbeobachtungen und Prognosen von mehr als 4000 Flughäfen (METAR und TAF Bericht).

Die verfügbaren Stationen werden durch gelbe und rote Markierungen auf der Karte dargestellt.

Führen Sie die Maus auf sie, um den Namen der Station zu sehen.

Darauf klicken, um die Beobachtung von Wetterbeobachtungen und Prognosen zu sehen.

Um die Karte zu ändern : klicken Sie auf den grünen Tasten mit einem schwarzen Kreuz Zum Vergrößern, auf den grünen Button mit einem Gedankenstrich zu verkleinern, oder auf die grünen Pfeile für benachbarte Karten.


METAR-TAF: